sensor_id;sensor_type;location;lat;lon;timestamp;P1;durP1;ratioP1;P2;durP2;ratioP2
30613;SDS011;17381;51.690;5.270;2022-07-01T12:14:28;3.78;;;0.93;;
30613;SDS011;17381;51.690;5.270;2022-07-01T12:17:27;4.53;;;0.93;;
30613;SDS011;17381;51.690;5.270;2022-07-01T12:20:35;3.30;;;0.68;;
30613;SDS011;17381;51.690;5.270;2022-07-01T15:41:59;3.20;;;1.10;;
30613;SDS011;17381;51.690;5.270;2022-07-01T15:45:15;2.90;;;0.73;;
30613;SDS011;17381;51.690;5.270;2022-07-01T15:51:26;3.42;;;0.80;;
30613;SDS011;17381;51.690;5.270;2022-07-01T15:55:05;2.78;;;0.80;;
30613;SDS011;17381;51.690;5.270;2022-07-01T17:15:17;2.70;;;0.70;;
30613;SDS011;17381;51.690;5.270;2022-07-01T17:18:05;2.67;;;0.65;;
30613;SDS011;17381;51.690;5.270;2022-07-01T17:21:11;2.38;;;0.75;;
30613;SDS011;17381;51.690;5.270;2022-07-01T17:24:35;2.63;;;0.70;;
30613;SDS011;17381;51.690;5.270;2022-07-01T18:08:54;3.15;;;0.73;;
30613;SDS011;17381;51.690;5.270;2022-07-01T18:15:48;3.20;;;0.82;;
30613;SDS011;17381;51.690;5.270;2022-07-01T18:56:34;2.05;;;0.50;;
30613;SDS011;17381;51.690;5.270;2022-07-01T18:59:00;3.92;;;1.15;;
30613;SDS011;17381;51.690;5.270;2022-07-01T19:01:32;4.75;;;0.80;;
30613;SDS011;17381;51.690;5.270;2022-07-01T19:03:58;5.20;;;0.93;;
30613;SDS011;17381;51.690;5.270;2022-07-01T19:06:24;2.30;;;0.63;;
30613;SDS011;17381;51.690;5.270;2022-07-01T19:08:55;4.68;;;0.85;;
30613;SDS011;17381;51.690;5.270;2022-07-01T19:11:24;2.40;;;0.60;;
30613;SDS011;17381;51.690;5.270;2022-07-01T19:13:56;2.38;;;0.70;;
30613;SDS011;17381;51.690;5.270;2022-07-01T19:16:25;2.25;;;0.60;;
30613;SDS011;17381;51.690;5.270;2022-07-01T19:18:51;3.50;;;0.80;;
30613;SDS011;17381;51.690;5.270;2022-07-01T19:21:20;3.83;;;0.90;;
30613;SDS011;17381;51.690;5.270;2022-07-01T19:23:49;5.03;;;0.90;;
30613;SDS011;17381;51.690;5.270;2022-07-01T19:26:22;3.78;;;1.00;;
30613;SDS011;17381;51.690;5.270;2022-07-01T19:28:55;6.20;;;1.10;;
30613;SDS011;17381;51.690;5.270;2022-07-01T19:31:24;3.38;;;0.98;;
30613;SDS011;17381;51.690;5.270;2022-07-01T19:33:49;3.92;;;1.10;;
30613;SDS011;17381;51.690;5.270;2022-07-01T19:36:16;5.53;;;1.27;;
30613;SDS011;17381;51.690;5.270;2022-07-01T19:38:42;4.05;;;1.10;;
30613;SDS011;17381;51.690;5.270;2022-07-01T19:41:21;4.78;;;1.58;;
30613;SDS011;17381;51.690;5.270;2022-07-01T19:43:50;4.70;;;1.38;;
30613;SDS011;17381;51.690;5.270;2022-07-01T19:46:30;5.50;;;1.70;;
30613;SDS011;17381;51.690;5.270;2022-07-01T19:49:01;4.22;;;1.55;;
30613;SDS011;17381;51.690;5.270;2022-07-01T19:51:33;5.15;;;1.67;;
30613;SDS011;17381;51.690;5.270;2022-07-01T19:54:01;4.97;;;1.50;;
30613;SDS011;17381;51.690;5.270;2022-07-01T19:56:34;5.60;;;1.40;;
30613;SDS011;17381;51.690;5.270;2022-07-01T19:59:03;4.38;;;1.20;;
30613;SDS011;17381;51.690;5.270;2022-07-01T20:01:41;3.05;;;0.95;;
30613;SDS011;17381;51.690;5.270;2022-07-01T20:04:07;5.00;;;1.50;;
30613;SDS011;17381;51.690;5.270;2022-07-01T20:07:01;4.80;;;1.48;;
30613;SDS011;17381;51.690;5.270;2022-07-01T20:09:31;4.63;;;1.40;;
30613;SDS011;17381;51.690;5.270;2022-07-01T20:11:57;5.47;;;1.50;;
30613;SDS011;17381;51.690;5.270;2022-07-01T20:14:25;3.63;;;1.20;;
30613;SDS011;17381;51.690;5.270;2022-07-01T20:16:50;7.40;;;1.60;;
30613;SDS011;17381;51.690;5.270;2022-07-01T20:19:30;2.75;;;1.15;;
30613;SDS011;17381;51.690;5.270;2022-07-01T20:22:05;3.40;;;1.27;;
30613;SDS011;17381;51.690;5.270;2022-07-01T20:24:34;4.75;;;1.40;;
30613;SDS011;17381;51.690;5.270;2022-07-01T20:27:19;5.40;;;1.30;;
30613;SDS011;17381;51.690;5.270;2022-07-01T20:29:53;4.45;;;1.35;;
30613;SDS011;17381;51.690;5.270;2022-07-01T20:32:24;3.22;;;1.05;;
30613;SDS011;17381;51.690;5.270;2022-07-01T20:34:57;4.22;;;1.52;;
30613;SDS011;17381;51.690;5.270;2022-07-01T20:37:23;4.88;;;1.27;;
30613;SDS011;17381;51.690;5.270;2022-07-01T20:39:52;3.72;;;1.17;;
30613;SDS011;17381;51.690;5.270;2022-07-01T20:42:24;4.65;;;1.50;;
30613;SDS011;17381;51.690;5.270;2022-07-01T20:44:51;4.90;;;1.90;;
30613;SDS011;17381;51.690;5.270;2022-07-01T20:47:21;5.00;;;1.88;;
30613;SDS011;17381;51.690;5.270;2022-07-01T20:49:47;4.28;;;1.63;;
30613;SDS011;17381;51.690;5.270;2022-07-01T20:52:18;7.53;;;2.10;;
30613;SDS011;17381;51.690;5.270;2022-07-01T20:54:47;5.30;;;1.55;;
30613;SDS011;17381;51.690;5.270;2022-07-01T20:57:15;5.40;;;1.63;;
30613;SDS011;17381;51.690;5.270;2022-07-01T20:59:47;3.40;;;1.40;;
30613;SDS011;17381;51.690;5.270;2022-07-01T21:02:13;7.07;;;1.90;;
30613;SDS011;17381;51.690;5.270;2022-07-01T21:04:45;5.25;;;1.52;;
30613;SDS011;17381;51.690;5.270;2022-07-01T21:07:18;4.95;;;1.48;;
30613;SDS011;17381;51.690;5.270;2022-07-01T21:09:49;4.80;;;1.45;;
30613;SDS011;17381;51.690;5.270;2022-07-01T21:13:09;6.68;;;1.90;;
30613;SDS011;17381;51.690;5.270;2022-07-01T21:15:38;5.72;;;2.13;;
30613;SDS011;17381;51.690;5.270;2022-07-01T21:18:12;5.65;;;2.13;;
30613;SDS011;17381;51.690;5.270;2022-07-01T21:20:47;5.07;;;1.90;;
30613;SDS011;17381;51.690;5.270;2022-07-01T21:23:27;5.47;;;2.00;;
30613;SDS011;17381;51.690;5.270;2022-07-01T21:25:53;5.30;;;2.67;;
30613;SDS011;17381;51.690;5.270;2022-07-01T21:28:18;14.75;;;9.20;;
30613;SDS011;17381;51.690;5.270;2022-07-01T21:30:46;19.23;;;12.25;;
30613;SDS011;17381;51.690;5.270;2022-07-01T21:33:12;11.02;;;6.40;;
30613;SDS011;17381;51.690;5.270;2022-07-01T21:35:44;7.63;;;4.07;;
30613;SDS011;17381;51.690;5.270;2022-07-01T21:38:21;5.57;;;2.97;;
30613;SDS011;17381;51.690;5.270;2022-07-01T21:40:52;6.68;;;2.00;;
30613;SDS011;17381;51.690;5.270;2022-07-01T21:43:22;5.47;;;2.33;;
30613;SDS011;17381;51.690;5.270;2022-07-01T21:45:52;7.18;;;4.10;;
30613;SDS011;17381;51.690;5.270;2022-07-01T21:48:19;8.93;;;3.53;;
30613;SDS011;17381;51.690;5.270;2022-07-01T21:50:52;6.75;;;2.78;;
30613;SDS011;17381;51.690;5.270;2022-07-01T21:53:27;6.18;;;2.60;;
30613;SDS011;17381;51.690;5.270;2022-07-01T21:55:57;7.80;;;2.97;;
30613;SDS011;17381;51.690;5.270;2022-07-01T21:58:46;3.83;;;2.15;;
30613;SDS011;17381;51.690;5.270;2022-07-01T22:01:19;5.30;;;2.70;;
30613;SDS011;17381;51.690;5.270;2022-07-01T22:03:48;4.75;;;2.80;;
30613;SDS011;17381;51.690;5.270;2022-07-01T22:06:14;7.80;;;2.60;;
30613;SDS011;17381;51.690;5.270;2022-07-01T22:08:44;6.80;;;2.88;;
30613;SDS011;17381;51.690;5.270;2022-07-01T22:11:21;6.47;;;3.90;;
30613;SDS011;17381;51.690;5.270;2022-07-01T22:16:30;5.22;;;3.10;;
30613;SDS011;17381;51.690;5.270;2022-07-01T22:19:03;5.82;;;3.35;;
30613;SDS011;17381;51.690;5.270;2022-07-01T22:21:35;6.03;;;3.05;;
30613;SDS011;17381;51.690;5.270;2022-07-01T22:24:05;8.55;;;3.40;;
30613;SDS011;17381;51.690;5.270;2022-07-01T22:26:40;17.52;;;8.77;;
30613;SDS011;17381;51.690;5.270;2022-07-01T22:29:12;19.95;;;10.45;;
30613;SDS011;17381;51.690;5.270;2022-07-01T22:32:05;10.45;;;4.75;;
30613;SDS011;17381;51.690;5.270;2022-07-01T22:34:39;6.28;;;3.10;;
30613;SDS011;17381;51.690;5.270;2022-07-01T22:37:05;7.85;;;3.05;;
30613;SDS011;17381;51.690;5.270;2022-07-01T22:39:32;4.50;;;2.58;;
30613;SDS011;17381;51.690;5.270;2022-07-01T22:41:59;4.90;;;2.53;;
30613;SDS011;17381;51.690;5.270;2022-07-01T22:44:28;4.45;;;2.58;;
30613;SDS011;17381;51.690;5.270;2022-07-01T22:47:04;5.28;;;3.13;;
30613;SDS011;17381;51.690;5.270;2022-07-01T22:58:14;6.72;;;3.83;;
30613;SDS011;17381;51.690;5.270;2022-07-01T23:01:04;5.22;;;2.92;;
30613;SDS011;17381;51.690;5.270;2022-07-01T23:03:35;6.63;;;3.45;;
30613;SDS011;17381;51.690;5.270;2022-07-01T23:06:05;6.70;;;3.28;;
30613;SDS011;17381;51.690;5.270;2022-07-01T23:08:55;5.28;;;3.35;;
30613;SDS011;17381;51.690;5.270;2022-07-01T23:11:35;5.75;;;3.83;;
30613;SDS011;17381;51.690;5.270;2022-07-01T23:16:59;7.00;;;3.33;;
30613;SDS011;17381;51.690;5.270;2022-07-01T23:19:35;5.60;;;3.60;;
30613;SDS011;17381;51.690;5.270;2022-07-01T23:22:09;5.60;;;3.45;;
30613;SDS011;17381;51.690;5.270;2022-07-01T23:24:48;6.85;;;3.60;;
30613;SDS011;17381;51.690;5.270;2022-07-01T23:27:26;5.53;;;3.25;;
30613;SDS011;17381;51.690;5.270;2022-07-01T23:29:53;6.72;;;3.10;;
30613;SDS011;17381;51.690;5.270;2022-07-01T23:32:31;7.63;;;4.15;;
30613;SDS011;17381;51.690;5.270;2022-07-01T23:35:05;8.82;;;3.55;;
30613;SDS011;17381;51.690;5.270;2022-07-01T23:37:33;5.55;;;3.40;;
30613;SDS011;17381;51.690;5.270;2022-07-01T23:40:13;8.82;;;3.72;;
30613;SDS011;17381;51.690;5.270;2022-07-01T23:42:52;6.70;;;3.50;;
30613;SDS011;17381;51.690;5.270;2022-07-01T23:45:21;7.53;;;3.38;;
30613;SDS011;17381;51.690;5.270;2022-07-01T23:47:47;4.53;;;2.88;;
30613;SDS011;17381;51.690;5.270;2022-07-01T23:50:22;3.85;;;2.80;;
30613;SDS011;17381;51.690;5.270;2022-07-01T23:52:57;6.05;;;2.90;;
30613;SDS011;17381;51.690;5.270;2022-07-01T23:55:31;5.45;;;3.30;;
